createdAt,value
2023-06-17T00:00:26.593Z,17.04
2023-06-17T00:04:49.925Z,16.96
2023-06-17T00:09:15.216Z,16.94
2023-06-17T00:13:38.633Z,16.87
2023-06-17T00:18:04.875Z,16.82
2023-06-17T00:22:30.772Z,16.77
2023-06-17T00:26:56.234Z,16.72
2023-06-17T00:31:19.937Z,16.67
2023-06-17T00:35:43.613Z,16.62
2023-06-17T00:40:09.457Z,16.57
2023-06-17T00:44:34.366Z,16.56
2023-06-17T00:48:58.106Z,16.50
2023-06-17T00:53:22.045Z,16.46
2023-06-17T00:57:47.598Z,16.43
2023-06-17T01:02:14.709Z,16.43
2023-06-17T01:06:47.036Z,16.43
2023-06-17T01:11:14.771Z,16.46
2023-06-17T01:15:39.474Z,16.42
2023-06-17T01:20:07.211Z,16.44
2023-06-17T01:24:32.440Z,16.43
2023-06-17T01:29:00.981Z,16.44
2023-06-17T01:33:25.958Z,16.47
2023-06-17T01:37:55.601Z,16.50
2023-06-17T01:42:27.976Z,16.43
2023-06-17T01:46:51.410Z,16.37
2023-06-17T01:51:16.048Z,16.33
2023-06-17T01:55:40.157Z,16.31
2023-06-17T02:00:06.032Z,16.29
2023-06-17T02:04:29.395Z,16.27
2023-06-17T02:08:54.905Z,16.23
2023-06-17T02:13:29.385Z,16.18
2023-06-17T02:17:56.816Z,16.14
2023-06-17T02:22:20.383Z,16.08
2023-06-17T02:26:44.303Z,15.98
2023-06-17T02:31:08.670Z,15.87
2023-06-17T02:35:34.189Z,15.83
2023-06-17T02:39:57.817Z,15.82
2023-06-17T02:44:21.382Z,15.83
2023-06-17T02:48:45.049Z,15.82
2023-06-17T02:53:10.389Z,15.80
2023-06-17T02:57:34.112Z,15.80
2023-06-17T03:01:58.917Z,15.82
2023-06-17T03:06:22.839Z,15.82
2023-06-17T03:10:50.116Z,15.78
2023-06-17T03:15:14.536Z,15.81
2023-06-17T03:19:39.226Z,15.84
2023-06-17T03:24:03.663Z,15.85
2023-06-17T03:28:30.869Z,15.82
2023-06-17T03:32:58.669Z,15.81
2023-06-17T03:37:23.181Z,15.80
2023-06-17T03:41:46.724Z,15.77
2023-06-17T03:46:12.887Z,15.78
2023-06-17T03:50:37.129Z,15.74
2023-06-17T03:55:03.356Z,15.70
2023-06-17T03:59:26.780Z,15.67
2023-06-17T04:03:53.115Z,15.66
2023-06-17T04:08:19.191Z,15.65
2023-06-17T04:12:44.438Z,15.65
2023-06-17T04:17:08.043Z,15.66
2023-06-17T04:21:33.339Z,15.67
2023-06-17T04:25:58.140Z,15.68
2023-06-17T04:30:22.437Z,15.73
2023-06-17T04:34:49.370Z,15.77
2023-06-17T04:39:15.637Z,15.82
2023-06-17T04:43:39.575Z,15.84
2023-06-17T04:48:07.189Z,15.90
2023-06-17T04:52:32.544Z,16.00
2023-06-17T04:57:00.481Z,16.11
2023-06-17T05:01:24.377Z,16.20
2023-06-17T05:05:47.960Z,16.25
2023-06-17T05:10:13.518Z,16.34
2023-06-17T05:14:38.252Z,16.39
2023-06-17T05:19:03.500Z,16.47
2023-06-17T05:23:27.390Z,16.57
2023-06-17T05:27:52.733Z,16.65
2023-06-17T05:32:19.794Z,16.77
2023-06-17T05:36:43.582Z,16.85
2023-06-17T05:41:08.206Z,16.91
2023-06-17T05:45:32.607Z,17.02
2023-06-17T05:49:57.653Z,17.10
2023-06-17T05:54:21.530Z,17.18
2023-06-17T05:58:45.268Z,17.21
2023-06-17T06:03:19.008Z,17.35
2023-06-17T06:07:44.652Z,17.63
2023-06-17T06:12:08.643Z,17.96
2023-06-17T06:16:33.143Z,18.17
2023-06-17T06:20:56.787Z,18.45
2023-06-17T06:25:21.790Z,18.61
2023-06-17T06:29:45.683Z,18.81
2023-06-17T06:34:10.582Z,18.96
2023-06-17T06:38:34.727Z,19.17
2023-06-17T06:43:00.651Z,19.36
2023-06-17T06:47:35.522Z,19.53
2023-06-17T06:51:59.353Z,19.68
2023-06-17T06:56:25.826Z,19.85
2023-06-17T07:00:50.576Z,20.08
2023-06-17T07:05:14.846Z,20.25
2023-06-17T07:09:44.752Z,20.36
2023-06-17T07:14:08.709Z,20.47
2023-06-17T07:18:33.660Z,20.60
2023-06-17T07:22:57.529Z,20.72
2023-06-17T07:27:21.283Z,20.99
2023-06-17T07:31:44.950Z,21.19
2023-06-17T07:36:09.712Z,21.17
2023-06-17T07:40:34.256Z,21.26
2023-06-17T07:44:57.950Z,21.40
2023-06-17T07:49:21.577Z,21.54
2023-06-17T07:53:46.273Z,21.72
2023-06-17T07:58:10.178Z,21.89
2023-06-17T08:02:33.544Z,22.02
2023-06-17T08:06:57.395Z,22.04
2023-06-17T08:11:22.056Z,22.19
2023-06-17T08:15:45.704Z,22.26
2023-06-17T08:20:11.214Z,22.39
2023-06-17T08:24:35.448Z,22.41
2023-06-17T08:29:00.523Z,22.47
2023-06-17T08:33:24.115Z,22.42
2023-06-17T08:37:48.385Z,22.34
2023-06-17T08:42:12.534Z,22.42
2023-06-17T08:46:39.650Z,22.50
2023-06-17T08:51:03.696Z,22.72
2023-06-17T08:55:27.189Z,22.90
2023-06-17T08:59:50.884Z,22.77
2023-06-17T09:04:16.367Z,22.66
2023-06-17T09:08:40.186Z,22.77
2023-06-17T09:13:03.492Z,22.81
2023-06-17T09:17:32.400Z,22.96
2023-06-17T09:21:57.403Z,23.09
2023-06-17T09:26:21.193Z,23.12
2023-06-17T09:30:45.072Z,23.32
2023-06-17T09:35:13.477Z,23.44
2023-06-17T09:39:38.211Z,23.31
2023-06-17T09:44:02.133Z,23.22
2023-06-17T09:48:31.067Z,23.23
2023-06-17T09:52:57.749Z,23.28
2023-06-17T09:57:22.958Z,23.34
2023-06-17T10:01:47.943Z,23.35
2023-06-17T10:06:13.127Z,23.46
2023-06-17T10:10:36.967Z,23.51
2023-06-17T10:15:04.951Z,23.45
2023-06-17T10:19:33.731Z,23.44
2023-06-17T10:23:59.294Z,23.56
2023-06-17T10:28:23.132Z,23.60
2023-06-17T10:32:54.196Z,23.90
2023-06-17T10:37:29.147Z,24.01
2023-06-17T10:41:58.818Z,23.87
2023-06-17T10:46:27.121Z,24.09
2023-06-17T10:50:58.052Z,24.19
2023-06-17T10:55:22.276Z,24.03
2023-06-17T10:59:45.562Z,24.07
2023-06-17T11:04:09.821Z,24.30
2023-06-17T11:08:35.783Z,24.50
2023-06-17T11:12:59.774Z,24.81
2023-06-17T11:17:23.113Z,24.82
2023-06-17T11:21:46.980Z,24.77
2023-06-17T11:26:12.186Z,24.65
2023-06-17T11:30:36.589Z,24.51
2023-06-17T11:35:01.091Z,24.59
2023-06-17T11:39:25.082Z,24.83
2023-06-17T11:43:51.011Z,25.03
2023-06-17T11:48:14.671Z,25.16
2023-06-17T11:52:38.470Z,25.29
2023-06-17T11:57:03.901Z,25.54
2023-06-17T12:01:28.800Z,25.81
2023-06-17T12:05:52.565Z,26.03
2023-06-17T12:10:16.487Z,26.22
2023-06-17T12:14:40.265Z,26.29
2023-06-17T12:19:07.292Z,26.21
2023-06-17T12:23:31.050Z,25.97
2023-06-17T12:27:54.364Z,25.70
2023-06-17T12:32:18.140Z,25.43
2023-06-17T12:36:42.837Z,25.43
2023-06-17T12:41:06.858Z,25.52
2023-06-17T12:45:30.981Z,25.43
2023-06-17T12:49:54.551Z,25.25
2023-06-17T12:54:19.989Z,25.01
2023-06-17T12:58:43.288Z,24.99
2023-06-17T13:03:08.006Z,24.98
2023-06-17T13:07:31.276Z,24.85
2023-06-17T13:11:56.354Z,24.82
2023-06-17T13:16:19.909Z,24.80
2023-06-17T13:20:43.913Z,24.88
2023-06-17T13:25:08.407Z,25.10
2023-06-17T13:29:34.216Z,25.20
2023-06-17T13:33:58.557Z,25.06
2023-06-17T13:38:22.471Z,25.02
2023-06-17T13:42:45.758Z,24.96
2023-06-17T13:47:11.368Z,24.94
2023-06-17T13:51:36.074Z,24.89
2023-06-17T13:56:00.590Z,24.79
2023-06-17T14:00:24.083Z,24.61
2023-06-17T14:04:52.129Z,24.60
2023-06-17T14:09:15.906Z,24.65
2023-06-17T14:13:41.558Z,24.58
2023-06-17T14:18:05.201Z,24.57
2023-06-17T14:22:30.857Z,24.65
2023-06-17T14:27:36.021Z,24.65
2023-06-17T14:31:59.289Z,24.52
2023-06-17T14:36:23.087Z,24.50
2023-06-17T14:40:47.676Z,24.42
2023-06-17T14:45:12.897Z,24.30
2023-06-17T14:49:36.186Z,24.21
2023-06-17T14:53:59.873Z,24.03
2023-06-17T14:58:24.969Z,23.91
2023-06-17T15:02:55.768Z,23.81
2023-06-17T15:07:19.467Z,23.73
2023-06-17T15:11:43.077Z,23.81
2023-06-17T15:16:07.967Z,23.85
2023-06-17T15:20:31.511Z,23.88
2023-06-17T15:24:54.816Z,23.98
2023-06-17T15:29:18.368Z,23.98
2023-06-17T15:33:42.961Z,23.97
2023-06-17T15:38:06.573Z,23.96
2023-06-17T15:42:29.824Z,23.90
2023-06-17T15:46:53.793Z,23.77
2023-06-17T15:51:18.435Z,23.67
2023-06-17T15:55:42.081Z,23.44
2023-06-17T16:00:07.390Z,23.15
2023-06-17T16:04:37.631Z,22.90
2023-06-17T16:09:02.365Z,22.65
2023-06-17T16:13:26.075Z,22.37
2023-06-17T16:17:49.410Z,22.27
2023-06-17T16:22:13.643Z,22.22
2023-06-17T16:26:38.435Z,22.14
2023-06-17T16:31:02.214Z,21.91
2023-06-17T16:35:25.556Z,21.79
2023-06-17T16:39:49.069Z,21.70
2023-06-17T16:44:13.754Z,21.66
2023-06-17T16:48:37.307Z,21.60
2023-06-17T16:53:00.642Z,21.60
2023-06-17T16:57:24.526Z,21.68
2023-06-17T17:01:49.611Z,21.72
2023-06-17T17:06:13.247Z,21.73
2023-06-17T17:10:36.589Z,21.79
2023-06-17T17:15:00.216Z,21.80
2023-06-17T17:19:25.460Z,21.77
2023-06-17T17:23:48.766Z,21.74
2023-06-17T17:28:12.163Z,21.69
2023-06-17T17:32:39.282Z,21.65
2023-06-17T17:37:04.484Z,21.67
2023-06-17T17:41:29.433Z,21.67
2023-06-17T17:45:52.706Z,21.60
2023-06-17T17:50:16.497Z,21.59
2023-06-17T17:54:53.162Z,21.53
2023-06-17T17:59:24.707Z,21.47
2023-06-17T18:03:48.717Z,21.39
2023-06-17T18:08:12.531Z,21.26
2023-06-17T18:12:37.193Z,21.17
2023-06-17T18:17:00.850Z,21.16
2023-06-17T18:21:28.135Z,21.17
2023-06-17T18:25:51.899Z,21.13
2023-06-17T18:30:17.005Z,21.09
2023-06-17T18:34:40.226Z,21.06
2023-06-17T18:39:04.498Z,21.05
2023-06-17T18:43:27.772Z,20.97
2023-06-17T18:47:53.050Z,20.88
2023-06-17T18:52:16.655Z,20.80
2023-06-17T18:56:40.756Z,20.75
2023-06-17T19:01:04.591Z,20.70
2023-06-17T19:05:30.080Z,20.58
2023-06-17T19:09:53.366Z,20.47
2023-06-17T19:14:17.537Z,20.44
2023-06-17T19:18:40.995Z,20.40
2023-06-17T19:23:06.597Z,20.37
2023-06-17T19:27:29.924Z,20.34
2023-06-17T19:31:53.957Z,20.33
2023-06-17T19:36:17.241Z,20.25
2023-06-17T19:40:42.558Z,20.16
2023-06-17T19:45:06.638Z,20.07
2023-06-17T19:49:30.646Z,20.02
2023-06-17T19:53:53.822Z,19.95
2023-06-17T19:58:19.019Z,19.90
2023-06-17T20:02:42.342Z,19.86
2023-06-17T20:07:06.522Z,19.79
2023-06-17T20:11:29.741Z,19.67
2023-06-17T20:15:55.009Z,19.60
2023-06-17T20:20:18.248Z,19.53
2023-06-17T20:24:42.672Z,19.41
2023-06-17T20:29:06.256Z,19.34
2023-06-17T20:33:33.008Z,19.28
2023-06-17T20:37:56.226Z,19.22
2023-06-17T20:42:20.279Z,19.17
2023-06-17T20:46:43.598Z,19.12
2023-06-17T20:51:11.490Z,19.05
2023-06-17T20:55:35.946Z,18.96
2023-06-17T20:59:59.799Z,18.89
2023-06-17T21:04:23.006Z,18.84
2023-06-17T21:08:48.377Z,18.82
2023-06-17T21:13:12.742Z,18.71
2023-06-17T21:17:36.826Z,18.60
2023-06-17T21:22:01.055Z,18.52
2023-06-17T21:26:27.141Z,18.44
2023-06-17T21:30:50.329Z,18.38
2023-06-17T21:35:14.235Z,18.30
2023-06-17T21:39:39.182Z,18.28
2023-06-17T21:44:04.878Z,18.25
2023-06-17T21:48:28.207Z,18.17
2023-06-17T21:52:52.146Z,18.11
2023-06-17T21:57:16.137Z,18.07
2023-06-17T22:01:41.606Z,18.01
2023-06-17T22:06:05.006Z,17.96
2023-06-17T22:10:29.087Z,17.89
2023-06-17T22:14:53.140Z,17.87
2023-06-17T22:19:18.580Z,17.83
2023-06-17T22:23:41.782Z,17.78
2023-06-17T22:28:05.913Z,17.73
2023-06-17T22:32:29.234Z,17.65
2023-06-17T22:36:54.333Z,17.54
2023-06-17T22:41:17.607Z,17.47
2023-06-17T22:45:41.911Z,17.42
2023-06-17T22:50:06.307Z,17.35
2023-06-17T22:54:32.507Z,17.33
2023-06-17T22:58:55.749Z,17.28
2023-06-17T23:03:19.864Z,17.28
2023-06-17T23:07:43.083Z,17.25
2023-06-17T23:12:09.356Z,17.19
2023-06-17T23:16:32.712Z,17.17
2023-06-17T23:20:56.654Z,17.12
2023-06-17T23:25:19.886Z,17.08
2023-06-17T23:29:45.557Z,17.03
2023-06-17T23:34:09.337Z,16.94
2023-06-17T23:38:33.776Z,16.87
2023-06-17T23:42:57.061Z,16.80
2023-06-17T23:47:24.234Z,16.78
2023-06-17T23:51:47.487Z,16.73
2023-06-17T23:56:11.783Z,16.71
